NOAA Web Site Link Tides and Currents Home Page Transparent placeholder image

PORTS® Data Listing: 8551762 Delaware City, DE

CO-OPS RAW PORTS DATA

************************      PRELIMINARY DATA      ************************** 

     THIS RAW DATA HAS NOT BEEN SUBJECT TO THE NATIONAL OCEAN SERVICE'S        
     QUALITY CONTROL OR QUALITY ASSURANCE PROCEDURES AND DOES NOT MEET         
     THE CRITERIA AND STANDARDS OF OFFICIAL NATIONAL OCEAN SERVICE             
     DATA.  IT IS RELEASED FOR LIMITED PUBLIC USE AS PRELIMINARY DATA TO       
     BE USED ONLY WITH APPROPRIATE CAUTION.                                    

************************      PRELIMINARY DATA      ************************** 


       CD   -   Calendar date
       T    -   Time
       TZ   -   Timezone
       PW   -   Predicted water level (feet above MLLW)
       OW   -   Observed water level (feet above MLLW)
       WS   -   Wind speed (knots)
       WD   -   Wind direction (degrees true)
       WG   -   Wind gust (knots)
       AT   -   Air temperature (degrees farenheit)
       WT   -   Water temperature (degrees farenheit)
       AP   -   Air pressure (millibars)
       SA   -   Salinty (PSU - Practical Salinity Units)
       SG   -   Specific gravity
       RH   -   Relative humidity
       AG   -   Air gap (feet)
       VI   -   Visibility (nautical miles)

       ** NOTE **
       A variable that has its data fields filled with "9"s, indicates that
       data was not collected for that sample period.
       **********


STATION NAME: Delaware City (8551762)
****************************************************************************************************
    CD       T    TZ    PW     OW    WS   WD   WG    AT    WT    AP    SA    SG     RH    AG   VI
****************************************************************************************************
2018/06/18 08:54 EDT    1.41   1.56    4  226    6  77.9  71.6 1017.6 -9.9 -9.999 -99.9 -99.99 -9.99
2018/06/18 09:00 EDT    1.31   1.48    2  262    5  78.1  71.8 1017.6 -9.9 -9.999 -99.9 -99.99 -9.99
2018/06/18 09:06 EDT    1.21   1.40    3  206    5  78.4  71.6 1017.6 -9.9 -9.999 -99.9 -99.99 -9.99
2018/06/18 09:12 EDT    1.11   1.33    3  210    5  79.2  71.8 1017.5 -9.9 -9.999 -99.9 -99.99 -9.99
2018/06/18 09:18 EDT    1.01   1.27    5  239    7  79.0  72.0 1017.5 -9.9 -9.999 -99.9 -99.99 -9.99
2018/06/18 09:24 EDT    0.91   1.19    3  260    6  79.5  72.1 1017.4 -9.9 -9.999 -99.9 -99.99 -9.99
2018/06/18 09:30 EDT    0.81   1.12    3  220    5  80.2  72.1 1017.3 -9.9 -9.999 -99.9 -99.99 -9.99
2018/06/18 09:36 EDT    0.71   1.05    3  231    5  80.8  72.1 1017.3 -9.9 -9.999 -99.9 -99.99 -9.99
2018/06/18 09:42 EDT    0.62   0.99    4  232    5  81.0  72.3 1017.1 -9.9 -9.999 -99.9 -99.99 -9.99
2018/06/18 09:48 EDT    0.53   0.92    3  205    5  82.2  72.3 1017.1 -9.9 -9.999 -99.9 -99.99 -9.99
2018/06/18 09:54 EDT    0.44   0.86    3  212    7  82.2  72.5 1017.0 -9.9 -9.999 -99.9 -99.99 -9.99
2018/06/18 10:00 EDT    0.37   0.81    4  234    6  82.0  72.7 1017.0 -9.9 -9.999 -99.9 -99.99 -9.99
2018/06/18 10:06 EDT    0.29   0.76    3  242    6  82.8  72.5 1017.0 -9.9 -9.999 -99.9 -99.99 -9.99
2018/06/18 10:12 EDT    0.23   0.70    3  219    5  82.8  72.5 1017.0 -9.9 -9.999 -99.9 -99.99 -9.99
2018/06/18 10:18 EDT    0.17   0.64    2  279    4  82.6  72.5 1016.9 -9.9 -9.999 -99.9 -99.99 -9.99
2018/06/18 10:24 EDT    0.12   0.59    2  124    4  82.4  72.5 1017.0 -9.9 -9.999 -99.9 -99.99 -9.99
2018/06/18 10:30 EDT    0.08   0.55    6  235    7  83.3  72.5 1016.9 -9.9 -9.999 -99.9 -99.99 -9.99
2018/06/18 10:36 EDT    0.05   0.50    4  232    9  84.0  72.5 1016.7 -9.9 -9.999 -99.9 -99.99 -9.99
2018/06/18 10:42 EDT    0.04   0.47    5  227    9  83.8  72.5 1016.6 -9.9 -9.999 -99.9 -99.99 -9.99
2018/06/18 10:48 EDT    0.03   0.44    4  255    7  83.7  72.5 1016.7 -9.9 -9.999 -99.9 -99.99 -9.99
2018/06/18 10:54 EDT    0.04   0.42    4  222    6  83.8  72.5 1016.6 -9.9 -9.999 -99.9 -99.99 -9.99
2018/06/18 11:00 EDT    0.05   0.41    2  246    6  84.4  72.5 1016.6 -9.9 -9.999 -99.9 -99.99 -9.99
2018/06/18 11:06 EDT    0.09   0.41    4  254    6  84.4  72.5 1016.6 -9.9 -9.999 -99.9 -99.99 -9.99
2018/06/18 11:12 EDT    0.13   0.43    4  205    7  85.1  72.7 1016.6 -9.9 -9.999 -99.9 -99.99 -9.99
2018/06/18 11:18 EDT    0.18   0.47    3  194    6  85.8  72.7 1016.7 -9.9 -9.999 -99.9 -99.99 -9.99
2018/06/18 11:24 EDT    0.25   0.54    3  171    8  85.5  72.7 1016.7 -9.9 -9.999 -99.9 -99.99 -9.99
2018/06/18 11:30 EDT    0.33   0.62    2  190    5  85.6  72.7 1016.7 -9.9 -9.999 -99.9 -99.99 -9.99
2018/06/18 11:36 EDT    0.41   0.74    3  271    5  85.6  72.5 1016.6 -9.9 -9.999 -99.9 -99.99 -9.99
2018/06/18 11:42 EDT    0.51   0.88    1  146    7  85.1  72.5 1016.6 -9.9 -9.999 -99.9 -99.99 -9.99
2018/06/18 11:48 EDT    0.62   1.05    1  223   10  86.9  72.5 1016.6 -9.9 -9.999 -99.9 -99.99 -9.99
2018/06/18 11:54 EDT    0.74   1.24    6  210   11  86.7  72.3 1016.5 -9.9 -9.999 -99.9 -99.99 -9.99
2018/06/18 12:00 EDT    0.86   1.43    5  253    9  86.5  72.3 1016.5 -9.9 -9.999 -99.9 -99.99 -9.99
2018/06/18 12:06 EDT    0.99   1.62    5  232    9  86.9  72.9 1016.4 -9.9 -9.999 -99.9 -99.99 -9.99
2018/06/18 12:12 EDT    1.13   1.81    5  242    9  86.7  73.0 1016.4 -9.9 -9.999 -99.9 -99.99 -9.99
2018/06/18 12:18 EDT    1.27   2.00    5  209    8  87.3  72.9 1016.3 -9.9 -9.999 -99.9 -99.99 -9.99
2018/06/18 12:24 EDT    1.42   2.18    4  214    8  87.8  72.5 1016.2 -9.9 -9.999 -99.9 -99.99 -9.99
2018/06/18 12:30 EDT    1.57   2.36    4  246    7  87.6  72.5 1016.0 -9.9 -9.999 -99.9 -99.99 -9.99
2018/06/18 12:36 EDT    1.72   2.54    4  205   11  87.6  72.7 1015.9 -9.9 -9.999 -99.9 -99.99 -9.99
2018/06/18 12:42 EDT    1.87   2.71    3  181    9  87.6  72.5 1015.9 -9.9 -9.999 -99.9 -99.99 -9.99
2018/06/18 12:48 EDT    2.02   2.89    4  220   10  87.8  72.3 1015.8 -9.9 -9.999 -99.9 -99.99 -9.99
2018/06/18 12:54 EDT    2.18   3.06    4  234    8  88.0  72.3 1015.8 -9.9 -9.999 -99.9 -99.99 -9.99
2018/06/18 13:00 EDT    2.33   3.23    5  211    9  88.2  72.7 1015.7 -9.9 -9.999 -99.9 -99.99 -9.99
2018/06/18 13:06 EDT    2.48   3.38    6  239   10  87.8  73.4 1015.7 -9.9 -9.999 -99.9 -99.99 -9.99
2018/06/18 13:12 EDT    2.62   3.55    6  246   10  87.8  73.2 1015.6 -9.9 -9.999 -99.9 -99.99 -9.99
2018/06/18 13:18 EDT    2.77   3.73    2  224    9  88.5  73.4 1015.6 -9.9 -9.999 -99.9 -99.99 -9.99
2018/06/18 13:24 EDT    2.91   3.87    4  226   10  88.5  73.4 1015.5 -9.9 -9.999 -99.9 -99.99 -9.99
2018/06/18 13:30 EDT    3.05   3.98    4  213   10  88.5  73.4 1015.4 -9.9 -9.999 -99.9 -99.99 -9.99
2018/06/18 13:36 EDT    3.19   4.19    5  182    9  87.3  73.4 1015.3 -9.9 -9.999 -99.9 -99.99 -9.99
2018/06/18 13:42 EDT    3.32   4.32    4  181   10  87.4  73.4 1015.3 -9.9 -9.999 -99.9 -99.99 -9.99
2018/06/18 13:48 EDT    3.45   4.42    5  181    8  87.4  73.4 1015.2 -9.9 -9.999 -99.9 -99.99 -9.99
2018/06/18 13:54 EDT    3.58   4.57    5  176    9  87.8  73.2 1015.2 -9.9 -9.999 -99.9 -99.99 -9.99
2018/06/18 14:00 EDT    3.70   4.69    5  166    9  87.4  73.4 1015.1 -9.9 -9.999 -99.9 -99.99 -9.99
2018/06/18 14:06 EDT    3.82   4.82    7  172    9  87.1  73.4 1015.1 -9.9 -9.999 -99.9 -99.99 -9.99
2018/06/18 14:12 EDT    3.94   4.94    4  148    7  86.4  73.2 1014.9 -9.9 -9.999 -99.9 -99.99 -9.99
2018/06/18 14:18 EDT    4.06   5.07    4  165    8  87.3  73.0 1014.8 -9.9 -9.999 -99.9 -99.99 -9.99
2018/06/18 14:24 EDT    4.17   5.16    5  177    8  88.3  72.9 1014.7 -9.9 -9.999 -99.9 -99.99 -9.99
2018/06/18 14:30 EDT    4.28   5.27    5  153    9  87.6  72.5 1014.6 -9.9 -9.999 -99.9 -99.99 -9.99
2018/06/18 14:36 EDT    4.38   5.38    6  153    9  87.3  72.3 1014.6 -9.9 -9.999 -99.9 -99.99 -9.99
2018/06/18 14:42 EDT    4.48   5.49    6  178    9  87.8  72.3 1014.5 -9.9 -9.999 -99.9 -99.99 -9.99
2018/06/18 14:48 EDT    4.58   5.59    7  148    9  85.3  72.1 1014.4 -9.9 -9.999 -99.9 -99.99 -9.99
2018/06/18 14:54 EDT    4.67   5.66    5  156    9  86.2  72.1 1014.4 -9.9 -9.999 -99.9 -99.99 -9.99
2018/06/18 15:00 EDT    4.76   5.74    8  168   10  86.9  72.3 1014.3 -9.9 -9.999 -99.9 -99.99 -9.99
2018/06/18 15:06 EDT    4.84   5.81    8  154   11  84.9  72.3 1014.3 -9.9 -9.999 -99.9 -99.99 -9.99
2018/06/18 15:12 EDT    4.92   5.89    7  148   10  84.9  72.5 1014.3 -9.9 -9.999 -99.9 -99.99 -9.99
2018/06/18 15:18 EDT    4.99   5.96    8  144   10  84.4  72.5 1014.1 -9.9 -9.999 -99.9 -99.99 -9.99
2018/06/18 15:24 EDT    5.06   6.01    7  148   10  84.7  72.5 1014.1 -9.9 -9.999 -99.9 -99.99 -9.99
2018/06/18 15:30 EDT    5.12   6.06    6  152    9  84.9  72.7 1013.9 -9.9 -9.999 -99.9 -99.99 -9.99
2018/06/18 15:36 EDT    5.18   6.12    7  153   10  84.7  72.7 1013.9 -9.9 -9.999 -99.9 -99.99 -9.99
2018/06/18 15:42 EDT    5.23   6.16    8  155   11  84.0  72.7 1013.7 -9.9 -9.999 -99.9 -99.99 -9.99
2018/06/18 15:48 EDT    5.27   6.19    7  155   11  84.2  72.5 1013.7 -9.9 -9.999 -99.9 -99.99 -9.99
2018/06/18 15:54 EDT    5.30   6.22    8  153   11  84.0  72.5 1013.5 -9.9 -9.999 -99.9 -99.99 -9.99
2018/06/18 16:00 EDT    5.33   6.25    8  171   11  85.3  72.5 1013.4 -9.9 -9.999 -99.9 -99.99 -9.99
2018/06/18 16:06 EDT    5.34   6.27    8  158   11  85.1  72.5 1013.3 -9.9 -9.999 -99.9 -99.99 -9.99
2018/06/18 16:12 EDT    5.35   6.29    6  166    9  85.5  72.3 1013.3 -9.9 -9.999 -99.9 -99.99 -9.99
2018/06/18 16:18 EDT    5.36   6.30    6  172    9  86.2  72.3 1013.2 -9.9 -9.999 -99.9 -99.99 -9.99
2018/06/18 16:24 EDT    5.35   6.29    6  156    9  85.6  72.3 1013.2 -9.9 -9.999 -99.9 -99.99 -9.99
2018/06/18 16:30 EDT    5.34   6.28    5  181    8  86.4  72.3 1013.2 -9.9 -9.999 -99.9 -99.99 -9.99
2018/06/18 16:36 EDT    5.31   6.26    7  162   10  85.5  72.3 1013.1 -9.9 -9.999 -99.9 -99.99 -9.99
2018/06/18 16:42 EDT    5.28   6.24    6  158    9  85.1  72.3 1013.0 -9.9 -9.999 -99.9 -99.99 -9.99
2018/06/18 16:48 EDT    5.24   6.19    6  151    9  84.4  72.3 1012.9 -9.9 -9.999 -99.9 -99.99 -9.99
2018/06/18 16:54 EDT    5.20   6.12    6  161    9  85.3  72.3 1012.8 -9.9 -9.999 -99.9 -99.99 -9.99
2018/06/18 17:00 EDT    5.15   6.11    4  167    8  86.0  72.3 1012.7 -9.9 -9.999 -99.9 -99.99 -9.99
2018/06/18 17:06 EDT    5.09   5.99    4  166    8  85.6  72.3 1012.7 -9.9 -9.999 -99.9 -99.99 -9.99
2018/06/18 17:12 EDT    5.02   5.88    6  180    8  86.2  72.3 1012.6 -9.9 -9.999 -99.9 -99.99 -9.99
2018/06/18 17:18 EDT    4.95   5.84    7  155   10  85.5  72.1 1012.6 -9.9 -9.999 -99.9 -99.99 -9.99
2018/06/18 17:24 EDT    4.88   5.74    5  156    9  85.3  72.3 1012.5 -9.9 -9.999 -99.9 -99.99 -9.99
2018/06/18 17:30 EDT    4.80   5.64    4  178    7  86.7  72.1 1012.3 -9.9 -9.999 -99.9 -99.99 -9.99
2018/06/18 17:36 EDT    4.71   5.54    6  148    7  85.3  72.1 1012.1 -9.9 -9.999 -99.9 -99.99 -9.99
2018/06/18 17:42 EDT    4.62   5.41    5  160    8  85.8  72.1 1012.0 -9.9 -9.999 -99.9 -99.99 -9.99
2018/06/18 17:48 EDT    4.53   5.31    3  145    5  85.5  72.1 1011.8 -9.9 -9.999 -99.9 -99.99 -9.99
2018/06/18 17:54 EDT    4.44   5.18    2  162    4  86.7  72.1 1011.8 -9.9 -9.999 -99.9 -99.99 -9.99
2018/06/18 18:00 EDT    4.34   5.08    5  239   11  88.7  72.3 1011.6 -9.9 -9.999 -99.9 -99.99 -9.99
2018/06/18 18:06 EDT    4.25   4.97    6  213   10  88.7  72.3 1011.5 -9.9 -9.999 -99.9 -99.99 -9.99
2018/06/18 18:12 EDT    4.15   4.81    3  222    7  88.9  72.3 1011.4 -9.9 -9.999 -99.9 -99.99 -9.99
2018/06/18 18:18 EDT    4.05   4.70    3  228    9  88.3  72.3 1011.5 -9.9 -9.999 -99.9 -99.99 -9.99
2018/06/18 18:24 EDT    3.95   4.56    5  227   11  88.0  72.3 1011.4 -9.9 -9.999 -99.9 -99.99 -9.99
2018/06/18 18:30 EDT    3.85   4.42    7  231   12  88.0  72.3 1011.2 -9.9 -9.999 -99.9 -99.99 -9.99
2018/06/18 18:36 EDT    3.75   4.28    4  220    8  88.2  72.3 1011.1 -9.9 -9.999 -99.9 -99.99 -9.99
2018/06/18 18:42 EDT    3.65   4.17    3  214    6  88.5  72.3 1010.9 -9.9 -9.999 -99.9 -99.99 -9.99
2018/06/18 18:48 EDT    3.55   4.03    5  221   11  88.3  72.3 1010.9 -9.9 -9.999 -99.9 -99.99 -9.99
2018/06/18 18:54 EDT    3.45   3.91    4  207    8  88.5  72.3 1010.8 -9.9 -9.999 -99.9 -99.99 -9.99
2018/06/18 19:00 EDT    3.36   3.77    5  226   11  88.2  72.3 1010.9 -9.9 -9.999 -99.9 -99.99 -9.99
2018/06/18 19:06 EDT    3.26   3.64    6  230   10  88.0  72.3 1010.8 -9.9 -9.999 -99.9 -99.99 -9.99
2018/06/18 19:12 EDT    3.17   3.53    6  221   10  87.8  72.3 1010.7 -9.9 -9.999 -99.9 -99.99 -9.99
2018/06/18 19:18 EDT    3.07   3.41    5  223   13  87.4  72.5 1010.7 -9.9 -9.999 -99.9 -99.99 -9.99
2018/06/18 19:24 EDT    2.98   3.29    6  230   11  87.1  72.5 1010.8 -9.9 -9.999 -99.9 -99.99 -9.99
2018/06/18 19:30 EDT    2.89   3.17    4  224    8  86.7  72.7 1010.7 -9.9 -9.999 -99.9 -99.99 -9.99
2018/06/18 19:36 EDT    2.80   3.04    7  232   10  86.5  72.9 1010.6 -9.9 -9.999 -99.9 -99.99 -9.99
2018/06/18 19:42 EDT    2.72   2.94    7  234   15  86.2  73.0 1010.6 -9.9 -9.999 -99.9 -99.99 -9.99
2018/06/18 19:48 EDT    2.63   2.88    7  227   14  86.0  72.9 1010.6 -9.9 -9.999 -99.9 -99.99 -9.99
2018/06/18 19:54 EDT    2.55   2.71    3  237   13  85.6  72.9 1010.7 -9.9 -9.999 -99.9 -99.99 -9.99
2018/06/18 20:00 EDT    2.47   2.59    3  224    9  85.5  73.0 1010.8 -9.9 -9.999 -99.9 -99.99 -9.99
2018/06/18 20:06 EDT    2.38   2.55    4  222   10  85.3  73.0 1010.7 -9.9 -9.999 -99.9 -99.99 -9.99
2018/06/18 20:12 EDT    2.30   2.51    6  228   12  85.1  73.2 1010.7 -9.9 -9.999 -99.9 -99.99 -9.99
2018/06/18 20:18 EDT    2.22   2.38    4  231   10  84.9  72.9 1010.7 -9.9 -9.999 -99.9 -99.99 -9.99
2018/06/18 20:24 EDT    2.14   2.28    4  228   10  84.6  72.9 1010.7 -9.9 -9.999 -99.9 -99.99 -9.99
2018/06/18 20:30 EDT    2.07   2.22    4  230    8  84.4  73.0 1010.8 -9.9 -9.999 -99.9 -99.99 -9.99
2018/06/18 20:36 EDT    1.99   2.10    4  233    7  84.2  73.0 1011.0 -9.9 -9.999 -99.9 -99.99 -9.99
2018/06/18 20:42 EDT    1.91   2.04    3  228    9  84.0  73.2 1011.2 -9.9 -9.999 -99.9 -99.99 -9.99
2018/06/18 20:48 EDT    1.83   1.95    3  245    7  83.8  73.0 1011.4 -9.9 -9.999 -99.9 -99.99 -9.99
2018/06/18 20:54 EDT    1.75   1.87    3  233    4  83.7  73.2 1011.5 -9.9 -9.999 -99.9 -99.99 -9.99
2018/06/18 21:00 EDT    1.68   1.79    3  245    5  83.7  73.2 1011.5 -9.9 -9.999 -99.9 -99.99 -9.99
2018/06/18 21:06 EDT    1.60   1.71    4  222    7  83.5  73.4 1011.3 -9.9 -9.999 -99.9 -99.99 -9.99
2018/06/18 21:12 EDT    1.52   1.61    3  220    6  83.3  73.6 1011.2 -9.9 -9.999 -99.9 -99.99 -9.99
2018/06/18 21:18 EDT    1.44   1.54    2  212    5  83.1  73.6 1011.0 -9.9 -9.999 -99.9 -99.99 -9.99
2018/06/18 21:24 EDT    1.36   1.47    3  217    5  82.9  73.6 1011.0 -9.9 -9.999 -99.9 -99.99 -9.99
2018/06/18 21:30 EDT    1.29   1.39    3  216    5  82.8  73.8 1010.9 -9.9 -9.999 -99.9 -99.99 -9.99
2018/06/18 21:36 EDT    1.21   1.32    3  217    6  82.8  73.8 1011.0 -9.9 -9.999 -99.9 -99.99 -9.99
2018/06/18 21:42 EDT    1.14   1.26    2  216    5  82.6  73.8 1011.0 -9.9 -9.999 -99.9 -99.99 -9.99
2018/06/18 21:48 EDT    1.06   1.18    3  221    7  82.6  73.9 1011.1 -9.9 -9.999 -99.9 -99.99 -9.99
2018/06/18 21:54 EDT    0.99   1.13    5  214    7  82.6  73.9 1011.2 -9.9 -9.999 -99.9 -99.99 -9.99
2018/06/18 22:00 EDT    0.92   1.07    3  221    6  82.4  73.9 1011.3 -9.9 -9.999 -99.9 -99.99 -9.99
2018/06/18 22:06 EDT    0.86   1.01    3  220    8  82.4  73.9 1011.4 -9.9 -9.999 -99.9 -99.99 -9.99
2018/06/18 22:12 EDT    0.80   0.95    4  225    8  82.4  73.9 1011.4 -9.9 -9.999 -99.9 -99.99 -9.99
2018/06/18 22:18 EDT    0.74   0.90    5  220    7  82.4  73.8 1011.4 -9.9 -9.999 -99.9 -99.99 -9.99
2018/06/18 22:24 EDT    0.69   0.85    5  221    8  82.4  73.8 1011.4 -9.9 -9.999 -99.9 -99.99 -9.99
2018/06/18 22:30 EDT    0.65   0.78    3  219   10  82.0  73.8 1011.4 -9.9 -9.999 -99.9 -99.99 -9.99
2018/06/18 22:36 EDT    0.62   0.75    4  221    9  82.2  73.9 1011.3 -9.9 -9.999 -99.9 -99.99 -9.99
2018/06/18 22:42 EDT    0.59   0.70    5  226    9  82.0  73.9 1011.3 -9.9 -9.999 -99.9 -99.99 -9.99
2018/06/18 22:48 EDT    0.57   0.67    6  230    9  82.0  73.9 1011.3 -9.9 -9.999 -99.9 -99.99 -9.99
2018/06/18 22:54 EDT    0.56   0.65    3  217   12  81.9  73.9 1011.3 -9.9 -9.999 -99.9 -99.99 -9.99
2018/06/18 23:00 EDT    0.56   0.63    5  225   11  81.7  74.1 1011.2 -9.9 -9.999 -99.9 -99.99 -9.99
2018/06/18 23:06 EDT    0.57   0.62    3  234    9  81.5  74.1 1011.2 -9.9 -9.999 -99.9 -99.99 -9.99
2018/06/18 23:12 EDT    0.59   0.63    5  223   10  81.5  74.1 1011.1 -9.9 -9.999 -99.9 -99.99 -9.99
2018/06/18 23:18 EDT    0.63   0.65    7  224   10  81.5  73.9 1010.9 -9.9 -9.999 -99.9 -99.99 -9.99
2018/06/18 23:24 EDT    0.67   0.67    4  222    8  81.3  73.9 1010.9 -9.9 -9.999 -99.9 -99.99 -9.99
2018/06/18 23:30 EDT    0.73   0.71    6  228   11  81.3  73.9 1010.7 -9.9 -9.999 -99.9 -99.99 -9.99
2018/06/18 23:36 EDT    0.80   0.83    6  229   11  81.1  74.1 1010.6 -9.9 -9.999 -99.9 -99.99 -9.99
2018/06/18 23:42 EDT    0.88   0.94    4  229   10  81.0  73.9 1010.6 -9.9 -9.999 -99.9 -99.99 -9.99
2018/06/18 23:48 EDT    0.97   1.08    5  220   10  81.0  73.4 1010.5 -9.9 -9.999 -99.9 -99.99 -9.99
2018/06/18 23:54 EDT    1.07   1.25    5  229   12  81.0  73.0 1010.4 -9.9 -9.999 -99.9 -99.99 -9.99
2018/06/19 00:00 EDT    1.18   1.42    4  226    9  80.8  73.0 1010.4 -9.9 -9.999 -99.9 -99.99 -9.99
2018/06/19 00:06 EDT    1.30   1.59    5  229   10  81.0  72.9 1010.3 -9.9 -9.999 -99.9 -99.99 -9.99
2018/06/19 00:12 EDT    1.43   1.79    5  239   11  80.8  72.9 1010.3 -9.9 -9.999 -99.9 -99.99 -9.99
2018/06/19 00:18 EDT    1.56   1.99    5  236   10  80.8  73.0 1010.3 -9.9 -9.999 -99.9 -99.99 -9.99
2018/06/19 00:24 EDT    1.70   2.16    5  236   11  80.8  73.0 1010.3 -9.9 -9.999 -99.9 -99.99 -9.99
2018/06/19 00:30 EDT    1.85   2.35    6  247   11  80.8  72.9 1010.2 -9.9 -9.999 -99.9 -99.99 -9.99
2018/06/19 00:36 EDT    2.00   2.52    4  239    9  80.6  72.9 1010.3 -9.9 -9.999 -99.9 -99.99 -9.99
2018/06/19 00:42 EDT    2.16   2.70    6  241   11  80.6  72.9 1010.3 -9.9 -9.999 -99.9 -99.99 -9.99
2018/06/19 00:48 EDT    2.31   2.89    5  245    9  80.4  72.7 1010.3 -9.9 -9.999 -99.9 -99.99 -9.99
2018/06/19 00:54 EDT    2.47   3.04    4  238    8  80.4  72.9 1010.3 -9.9 -9.999 -99.9 -99.99 -9.99
2018/06/19 01:00 EDT    2.63   3.19    8  244   13  80.4  72.9 1010.3 -9.9 -9.999 -99.9 -99.99 -9.99
2018/06/19 01:06 EDT    2.79   3.38    5  244   10  80.2  73.0 1010.2 -9.9 -9.999 -99.9 -99.99 -9.99
2018/06/19 01:12 EDT    2.95   3.50    4  240    9  80.1  73.0 1010.0 -9.9 -9.999 -99.9 -99.99 -9.99
2018/06/19 01:18 EDT    3.11   3.67    5  228   10  80.1  73.0 1009.9 -9.9 -9.999 -99.9 -99.99 -9.99
2018/06/19 01:24 EDT    3.26   3.83    5  238   11  79.9  73.0 1009.9 -9.9 -9.999 -99.9 -99.99 -9.99
2018/06/19 01:30 EDT    3.42   3.99    5  229   10  79.7  73.0 1009.9 -9.9 -9.999 -99.9 -99.99 -9.99
2018/06/19 01:36 EDT    3.56   4.14    6  234   10  79.7  72.9 1009.9 -9.9 -9.999 -99.9 -99.99 -9.99
2018/06/19 01:42 EDT    3.71   4.29    5  239   10  79.5  72.9 1009.7 -9.9 -9.999 -99.9 -99.99 -9.99
2018/06/19 01:48 EDT    3.85   4.43    5  234   10  79.3  72.9 1009.7 -9.9 -9.999 -99.9 -99.99 -9.99
2018/06/19 01:54 EDT    3.99   4.57    4  233    8  79.3  72.9 1009.6 -9.9 -9.999 -99.9 -99.99 -9.99
2018/06/19 02:00 EDT    4.12   4.71    5  227    9  79.3  72.9 1009.5 -9.9 -9.999 -99.9 -99.99 -9.99
2018/06/19 02:06 EDT    4.25   4.84    4  230   10  79.2  72.7 1009.4 -9.9 -9.999 -99.9 -99.99 -9.99
2018/06/19 02:12 EDT    4.37   4.98    3  224    8  79.2  72.7 1009.3 -9.9 -9.999 -99.9 -99.99 -9.99
2018/06/19 02:18 EDT    4.49   5.12    4  234    8  79.0  72.7 1009.2 -9.9 -9.999 -99.9 -99.99 -9.99
2018/06/19 02:24 EDT    4.60   5.22    4  235    8  79.0  72.7 1009.2 -9.9 -9.999 -99.9 -99.99 -9.99
2018/06/19 02:30 EDT    4.71   5.36    4  227    8  79.0  72.7 1009.1 -9.9 -9.999 -99.9 -99.99 -9.99
2018/06/19 02:36 EDT    4.82   5.46    6  233    8  79.0  72.7 1009.0 -9.9 -9.999 -99.9 -99.99 -9.99
2018/06/19 02:42 EDT    4.92   5.56    5  228    8  79.2  72.5 1008.9 -9.9 -9.999 -99.9 -99.99 -9.99
2018/06/19 02:48 EDT    5.02   5.68    5  224   10  79.2  72.3 1008.8 -9.9 -9.999 -99.9 -99.99 -9.99
2018/06/19 02:54 EDT    5.11   5.76    4  225    7  79.2  72.3 1008.7 -9.9 -9.999 -99.9 -99.99 -9.99
2018/06/19 03:00 EDT    5.20 -99.99 -999 -999 -999 -99.9 -99.9 -999.9 -9.9 -9.999 -99.9 -99.99 -9.99
2018/06/19 03:06 EDT    5.29 -99.99 -999 -999 -999 -99.9 -99.9 -999.9 -9.9 -9.999 -99.9 -99.99 -9.99
2018/06/19 03:12 EDT    5.37 -99.99 -999 -999 -999 -99.9 -99.9 -999.9 -9.9 -9.999 -99.9 -99.99 -9.99
2018/06/19 03:18 EDT    5.45 -99.99 -999 -999 -999 -99.9 -99.9 -999.9 -9.9 -9.999 -99.9 -99.99 -9.99
2018/06/19 03:24 EDT    5.52 -99.99 -999 -999 -999 -99.9 -99.9 -999.9 -9.9 -9.999 -99.9 -99.99 -9.99
2018/06/19 03:30 EDT    5.59 -99.99 -999 -999 -999 -99.9 -99.9 -999.9 -9.9 -9.999 -99.9 -99.99 -9.99
2018/06/19 03:36 EDT    5.65 -99.99 -999 -999 -999 -99.9 -99.9 -999.9 -9.9 -9.999 -99.9 -99.99 -9.99
2018/06/19 03:42 EDT    5.71 -99.99 -999 -999 -999 -99.9 -99.9 -999.9 -9.9 -9.999 -99.9 -99.99 -9.99
2018/06/19 03:48 EDT    5.76 -99.99 -999 -999 -999 -99.9 -99.9 -999.9 -9.9 -9.999 -99.9 -99.99 -9.99
2018/06/19 03:54 EDT    5.81 -99.99 -999 -999 -999 -99.9 -99.9 -999.9 -9.9 -9.999 -99.9 -99.99 -9.99
2018/06/19 04:00 EDT    5.85 -99.99 -999 -999 -999 -99.9 -99.9 -999.9 -9.9 -9.999 -99.9 -99.99 -9.99
2018/06/19 04:06 EDT    5.88 -99.99 -999 -999 -999 -99.9 -99.9 -999.9 -9.9 -9.999 -99.9 -99.99 -9.99
2018/06/19 04:12 EDT    5.91 -99.99 -999 -999 -999 -99.9 -99.9 -999.9 -9.9 -9.999 -99.9 -99.99 -9.99
2018/06/19 04:18 EDT    5.93 -99.99 -999 -999 -999 -99.9 -99.9 -999.9 -9.9 -9.999 -99.9 -99.99 -9.99
2018/06/19 04:24 EDT    5.94 -99.99 -999 -999 -999 -99.9 -99.9 -999.9 -9.9 -9.999 -99.9 -99.99 -9.99
2018/06/19 04:30 EDT    5.94 -99.99 -999 -999 -999 -99.9 -99.9 -999.9 -9.9 -9.999 -99.9 -99.99 -9.99
2018/06/19 04:36 EDT    5.94 -99.99 -999 -999 -999 -99.9 -99.9 -999.9 -9.9 -9.999 -99.9 -99.99 -9.99
2018/06/19 04:42 EDT    5.93 -99.99 -999 -999 -999 -99.9 -99.9 -999.9 -9.9 -9.999 -99.9 -99.99 -9.99
2018/06/19 04:48 EDT    5.91 -99.99 -999 -999 -999 -99.9 -99.9 -999.9 -9.9 -9.999 -99.9 -99.99 -9.99
2018/06/19 04:54 EDT    5.88 -99.99 -999 -999 -999 -99.9 -99.9 -999.9 -9.9 -9.999 -99.9 -99.99 -9.99
2018/06/19 05:00 EDT    5.84 -99.99 -999 -999 -999 -99.9 -99.9 -999.9 -9.9 -9.999 -99.9 -99.99 -9.99
2018/06/19 05:06 EDT    5.80 -99.99 -999 -999 -999 -99.9 -99.9 -999.9 -9.9 -9.999 -99.9 -99.99 -9.99
2018/06/19 05:12 EDT    5.75 -99.99 -999 -999 -999 -99.9 -99.9 -999.9 -9.9 -9.999 -99.9 -99.99 -9.99
2018/06/19 05:18 EDT    5.70 -99.99 -999 -999 -999 -99.9 -99.9 -999.9 -9.9 -9.999 -99.9 -99.99 -9.99
2018/06/19 05:24 EDT    5.64 -99.99 -999 -999 -999 -99.9 -99.9 -999.9 -9.9 -9.999 -99.9 -99.99 -9.99
2018/06/19 05:30 EDT    5.57 -99.99 -999 -999 -999 -99.9 -99.9 -999.9 -9.9 -9.999 -99.9 -99.99 -9.99
2018/06/19 05:36 EDT    5.49 -99.99 -999 -999 -999 -99.9 -99.9 -999.9 -9.9 -9.999 -99.9 -99.99 -9.99
2018/06/19 05:42 EDT    5.42 -99.99 -999 -999 -999 -99.9 -99.9 -999.9 -9.9 -9.999 -99.9 -99.99 -9.99
2018/06/19 05:48 EDT    5.33 -99.99 -999 -999 -999 -99.9 -99.9 -999.9 -9.9 -9.999 -99.9 -99.99 -9.99
2018/06/19 05:54 EDT    5.24 -99.99 -999 -999 -999 -99.9 -99.9 -999.9 -9.9 -9.999 -99.9 -99.99 -9.99
2018/06/19 06:00 EDT    5.15 -99.99 -999 -999 -999 -99.9 -99.9 -999.9 -9.9 -9.999 -99.9 -99.99 -9.99
2018/06/19 06:06 EDT    5.06 -99.99 -999 -999 -999 -99.9 -99.9 -999.9 -9.9 -9.999 -99.9 -99.99 -9.99
2018/06/19 06:12 EDT    4.96 -99.99 -999 -999 -999 -99.9 -99.9 -999.9 -9.9 -9.999 -99.9 -99.99 -9.99
2018/06/19 06:18 EDT    4.86 -99.99 -999 -999 -999 -99.9 -99.9 -999.9 -9.9 -9.999 -99.9 -99.99 -9.99
2018/06/19 06:24 EDT    4.76 -99.99 -999 -999 -999 -99.9 -99.9 -999.9 -9.9 -9.999 -99.9 -99.99 -9.99
2018/06/19 06:30 EDT    4.66 -99.99 -999 -999 -999 -99.9 -99.9 -999.9 -9.9 -9.999 -99.9 -99.99 -9.99
2018/06/19 06:36 EDT    4.56 -99.99 -999 -999 -999 -99.9 -99.9 -999.9 -9.9 -9.999 -99.9 -99.99 -9.99
2018/06/19 06:42 EDT    4.45 -99.99 -999 -999 -999 -99.9 -99.9 -999.9 -9.9 -9.999 -99.9 -99.99 -9.99
2018/06/19 06:48 EDT    4.35 -99.99 -999 -999 -999 -99.9 -99.9 -999.9 -9.9 -9.999 -99.9 -99.99 -9.99
2018/06/19 06:54 EDT    4.24 -99.99 -999 -999 -999 -99.9 -99.9 -999.9 -9.9 -9.999 -99.9 -99.99 -9.99
2018/06/19 07:00 EDT    4.14 -99.99 -999 -999 -999 -99.9 -99.9 -999.9 -9.9 -9.999 -99.9 -99.99 -9.99
2018/06/19 07:06 EDT    4.03 -99.99 -999 -999 -999 -99.9 -99.9 -999.9 -9.9 -9.999 -99.9 -99.99 -9.99
2018/06/19 07:12 EDT    3.93 -99.99 -999 -999 -999 -99.9 -99.9 -999.9 -9.9 -9.999 -99.9 -99.99 -9.99
2018/06/19 07:18 EDT    3.83 -99.99 -999 -999 -999 -99.9 -99.9 -999.9 -9.9 -9.999 -99.9 -99.99 -9.99
2018/06/19 07:24 EDT    3.73 -99.99 -999 -999 -999 -99.9 -99.9 -999.9 -9.9 -9.999 -99.9 -99.99 -9.99
2018/06/19 07:30 EDT    3.63 -99.99 -999 -999 -999 -99.9 -99.9 -999.9 -9.9 -9.999 -99.9 -99.99 -9.99
2018/06/19 07:36 EDT    3.53 -99.99 -999 -999 -999 -99.9 -99.9 -999.9 -9.9 -9.999 -99.9 -99.99 -9.99
2018/06/19 07:42 EDT    3.43 -99.99 -999 -999 -999 -99.9 -99.9 -999.9 -9.9 -9.999 -99.9 -99.99 -9.99
2018/06/19 07:48 EDT    3.33 -99.99 -999 -999 -999 -99.9 -99.9 -999.9 -9.9 -9.999 -99.9 -99.99 -9.99
2018/06/19 07:54 EDT    3.23 -99.99 -999 -999 -999 -99.9 -99.9 -999.9 -9.9 -9.999 -99.9 -99.99 -9.99
2018/06/19 08:00 EDT    3.14 -99.99 -999 -999 -999 -99.9 -99.9 -999.9 -9.9 -9.999 -99.9 -99.99 -9.99
2018/06/19 08:06 EDT    3.04 -99.99 -999 -999 -999 -99.9 -99.9 -999.9 -9.9 -9.999 -99.9 -99.99 -9.99
2018/06/19 08:12 EDT    2.95 -99.99 -999 -999 -999 -99.9 -99.9 -999.9 -9.9 -9.999 -99.9 -99.99 -9.99
2018/06/19 08:18 EDT    2.86 -99.99 -999 -999 -999 -99.9 -99.9 -999.9 -9.9 -9.999 -99.9 -99.99 -9.99
2018/06/19 08:24 EDT    2.76 -99.99 -999 -999 -999 -99.9 -99.9 -999.9 -9.9 -9.999 -99.9 -99.99 -9.99
2018/06/19 08:30 EDT    2.67 -99.99 -999 -999 -999 -99.9 -99.9 -999.9 -9.9 -9.999 -99.9 -99.99 -9.99
2018/06/19 08:36 EDT    2.58 -99.99 -999 -999 -999 -99.9 -99.9 -999.9 -9.9 -9.999 -99.9 -99.99 -9.99
2018/06/19 08:42 EDT    2.49 -99.99 -999 -999 -999 -99.9 -99.9 -999.9 -9.9 -9.999 -99.9 -99.99 -9.99
2018/06/19 08:48 EDT    2.40 -99.99 -999 -999 -999 -99.9 -99.9 -999.9 -9.9 -9.999 -99.9 -99.99 -9.99
2018/06/19 08:54 EDT    2.30 -99.99 -999 -999 -999 -99.9 -99.9 -999.9 -9.9 -9.999 -99.9 -99.99 -9.99

Revised: 10/15/2013
NOAA / National Ocean Service
Web site owner: Center for Operational Oceanographic Products and Services